Subpeak Weather

  • Time Avg. Air Temp Dew Point Avg. Rel Humidity Avg. 2 Min Wind Speed Max Gust Velocity MGV Time MGV Direction Avg. Spot Wind Velocity
    2022-08-09 22:20:0015° C15° C100%15 km/h20 km/h22:20:00E14 km/h
    21:20:0014° C14° C100%11 km/h16 km/h21:18:00SE12 km/h
    20:20:0014° C14° C100%19 km/h26 km/h20:19:00E19 km/h
    19:20:0015° C15° C100%26 km/h34 km/h19:16:00SE27 km/h
    18:20:0016° C16° C100%22 km/h27 km/h18:19:00E23 km/h
    17:20:0017° C17° C100%12 km/h13 km/h17:20:00S12 km/h
    16:20:0019° C19° C100%19 km/h26 km/h16:20:00S19 km/h
    15:20:0018° C18° C100%13 km/h18 km/h15:17:00S12 km/h
    14:20:0018° C17° C100%14 km/h17 km/h14:20:00SE12 km/h
    13:20:0018° C18° C100%15 km/h19 km/h13:16:00SE14 km/h
    12:20:0018° C18° C100%13 km/h22 km/h12:17:00S14 km/h
    11:20:0018° C18° C100%8 km/h17 km/h11:18:00E9 km/h
    10:20:0017° C17° C100%11 km/h18 km/h10:19:00S11 km/h
    09:20:0016° C16° C100%9 km/h12 km/h09:17:00SE8 km/h
    08:20:0015° C15° C100%9 km/h17 km/h08:16:00SE13 km/h
    07:20:0014° C14° C100%14 km/h17 km/h07:17:00SE14 km/h
    06:20:0014° C14° C100%16 km/h19 km/h06:18:00SE17 km/h
    05:20:0014° C14° C100%17 km/h17 km/h05:18:00SE17 km/h
    04:20:0014° C14° C100%2 km/h3 km/h04:19:00SE2 km/h
    03:20:0014° C14° C100%6 km/h9 km/h03:16:00NW7 km/h
    02:20:0014° C14° C100%7 km/h8 km/h02:16:00W6 km/h
    01:20:0014° C14° C100%16 km/h17 km/h01:20:00S16 km/h
    00:20:0014° C14° C100%13 km/h14 km/h00:16:00S13 km/h
    23:20:0014° C14° C100%11 km/h12 km/h23:17:00W11 km/h
  • Time Avg. Air Temp Dew Point Avg. Rel Humidity Avg. 2 Min Wind Speed Max Gust Velocity MGV Time MGV Direction Avg. Spot Wind Velocity
    2022-08-09 22:20:0015° C15° C100%15 km/h20 km/h22:20:00E14 km/h
    22:15:0015° C15° C100%13 km/h17 km/h22:14:00SE12 km/h
    22:10:0015° C15° C100%13 km/h19 km/h22:09:00SE13 km/h
    22:05:0015° C15° C100%13 km/h16 km/h22:04:00E14 km/h
    22:00:0015° C15° C100%15 km/h18 km/h21:56:00E15 km/h
    21:55:0015° C15° C100%17 km/h19 km/h21:52:00SE17 km/h
    21:50:0015° C15° C100%18 km/h20 km/h21:50:00E16 km/h
    21:45:0015° C15° C100%19 km/h21 km/h21:44:00SE18 km/h
    21:40:0014° C15° C100%17 km/h21 km/h21:36:00SE18 km/h
    21:35:0015° C15° C100%18 km/h23 km/h21:34:00SE17 km/h
    21:30:0014° C14° C100%17 km/h18 km/h21:30:00SE13 km/h
    21:25:0014° C14° C100%8 km/h16 km/h21:22:00SE9 km/h
    21:20:0014° C14° C100%11 km/h16 km/h21:18:00SE12 km/h

Explore More

Get Revelstoke news, offers, and events via email.